Terminal Aerodrome Forecast
Issued by NWS

Home | Current Version | Previous Version | Text Only | Print | Product List | Glossary On
Versions: 1 2 3 4 5 6 7 8 9 10 11 12 13 14 15 16 17 18 19 20 21 22 23 24 25 26 27 28
000
FTUS43 KGLD 261757
TAFMCK
TAF
KMCK 261757Z 2618/2718 16013KT P6SM FEW250
     FM270400 18007KT P6SM SCT050 BKN250 PROB30 2706/2709 -TSRA
      BKN040CB
     FM271500 20007KT P6SM SCT250=

USA.gov is the U.S. government's official web portal to all federal, state and local government web resources and services.